sensor_id;sensor_type;location;lat;lon;timestamp;P1;P2;P0
68713;PMS7003;55690;51.566;19.198;2023-03-23T00:02:18;18;15;10
68713;PMS7003;55690;51.566;19.198;2023-03-23T00:06:26;19;14;11
68713;PMS7003;55690;51.566;19.198;2023-03-23T00:10:35;21;13;9
68713;PMS7003;55690;51.566;19.198;2023-03-23T00:14:37;23;18;14
68713;PMS7003;55690;51.566;19.198;2023-03-23T00:18:48;13;10;8
68713;PMS7003;55690;51.566;19.198;2023-03-23T00:22:53;17;17;10
68713;PMS7003;55690;51.566;19.198;2023-03-23T00:27:00;30;15;11
68713;PMS7003;55690;51.566;19.198;2023-03-23T00:31:04;27;19;9
68713;PMS7003;55690;51.566;19.198;2023-03-23T00:35:08;19;14;9
68713;PMS7003;55690;51.566;19.198;2023-03-23T00:39:14;10;10;8
68713;PMS7003;55690;51.566;19.198;2023-03-23T00:43:20;18;10;8
68713;PMS7003;55690;51.566;19.198;2023-03-23T00:47:27;16;9;6
68713;PMS7003;55690;51.566;19.198;2023-03-23T00:51:33;18;11;7
68713;PMS7003;55690;51.566;19.198;2023-03-23T00:55:43;20;15;9
68713;PMS7003;55690;51.566;19.198;2023-03-23T00:59:48;13;12;9
68713;PMS7003;55690;51.566;19.198;2023-03-23T01:03:51;17;16;11
68713;PMS7003;55690;51.566;19.198;2023-03-23T01:08:01;10;6;5
68713;PMS7003;55690;51.566;19.198;2023-03-23T01:12:03;11;10;8
68713;PMS7003;55690;51.566;19.198;2023-03-23T01:16:10;19;10;7
68713;PMS7003;55690;51.566;19.198;2023-03-23T01:20:16;16;11;8
68713;PMS7003;55690;51.566;19.198;2023-03-23T01:24:22;8;8;6
68713;PMS7003;55690;51.566;19.198;2023-03-23T01:28:28;21;12;9
68713;PMS7003;55690;51.566;19.198;2023-03-23T01:32:34;10;9;7
68713;PMS7003;55690;51.566;19.198;2023-03-23T01:36:40;17;8;5
68713;PMS7003;55690;51.566;19.198;2023-03-23T01:40:47;27;11;7
68713;PMS7003;55690;51.566;19.198;2023-03-23T01:49:08;24;13;9
68713;PMS7003;55690;51.566;19.198;2023-03-23T01:53:16;7;7;6
68713;PMS7003;55690;51.566;19.198;2023-03-23T01:57:19;17;9;8
68713;PMS7003;55690;51.566;19.198;2023-03-23T02:01:27;14;10;8
68713;PMS7003;55690;51.566;19.198;2023-03-23T02:05:32;10;10;8
68713;PMS7003;55690;51.566;19.198;2023-03-23T02:09:38;11;7;5
68713;PMS7003;55690;51.566;19.198;2023-03-23T02:13:39;16;8;7
68713;PMS7003;55690;51.566;19.198;2023-03-23T02:17:45;12;9;7
68713;PMS7003;55690;51.566;19.198;2023-03-23T02:26:11;15;12;8
68713;PMS7003;55690;51.566;19.198;2023-03-23T02:34:41;6;6;5
68713;PMS7003;55690;51.566;19.198;2023-03-23T02:38:49;9;8;5
68713;PMS7003;55690;51.566;19.198;2023-03-23T02:42:57;18;4;3
68713;PMS7003;55690;51.566;19.198;2023-03-23T02:47:02;5;5;5
68713;PMS7003;55690;51.566;19.198;2023-03-23T02:51:07;8;7;5
68713;PMS7003;55690;51.566;19.198;2023-03-23T02:55:11;9;9;7
68713;PMS7003;55690;51.566;19.198;2023-03-23T02:59:16;7;7;5
68713;PMS7003;55690;51.566;19.198;2023-03-23T03:03:19;15;8;6
68713;PMS7003;55690;51.566;19.198;2023-03-23T03:11:32;14;8;7
68713;PMS7003;55690;51.566;19.198;2023-03-23T03:15:37;13;9;6
68713;PMS7003;55690;51.566;19.198;2023-03-23T03:19:45;7;7;6
68713;PMS7003;55690;51.566;19.198;2023-03-23T03:23:52;8;7;6
68713;PMS7003;55690;51.566;19.198;2023-03-23T03:27:56;12;6;5
68713;PMS7003;55690;51.566;19.198;2023-03-23T03:31:59;14;10;6
68713;PMS7003;55690;51.566;19.198;2023-03-23T03:36:06;5;5;4
68713;PMS7003;55690;51.566;19.198;2023-03-23T03:40:16;9;9;7
68713;PMS7003;55690;51.566;19.198;2023-03-23T03:44:19;10;8;7
68713;PMS7003;55690;51.566;19.198;2023-03-23T03:48:21;6;6;5
68713;PMS7003;55690;51.566;19.198;2023-03-23T03:52:22;14;7;5
68713;PMS7003;55690;51.566;19.198;2023-03-23T03:56:24;10;5;4
68713;PMS7003;55690;51.566;19.198;2023-03-23T04:00:26;11;9;7
68713;PMS7003;55690;51.566;19.198;2023-03-23T04:04:28;16;8;5
68713;PMS7003;55690;51.566;19.198;2023-03-23T04:08:30;8;7;6
68713;PMS7003;55690;51.566;19.198;2023-03-23T04:12:35;10;8;7
68713;PMS7003;55690;51.566;19.198;2023-03-23T04:16:41;9;4;4
68713;PMS7003;55690;51.566;19.198;2023-03-23T04:20:48;13;9;6
68713;PMS7003;55690;51.566;19.198;2023-03-23T04:24:54;13;10;8
68713;PMS7003;55690;51.566;19.198;2023-03-23T04:29:00;11;9;6
68713;PMS7003;55690;51.566;19.198;2023-03-23T04:33:06;9;7;5
68713;PMS7003;55690;51.566;19.198;2023-03-23T04:37:12;11;9;7
68713;PMS7003;55690;51.566;19.198;2023-03-23T04:41:18;7;6;5
68713;PMS7003;55690;51.566;19.198;2023-03-23T04:45:24;10;9;8
68713;PMS7003;55690;51.566;19.198;2023-03-23T04:49:31;11;9;5
68713;PMS7003;55690;51.566;19.198;2023-03-23T04:53:37;12;9;7
68713;PMS7003;55690;51.566;19.198;2023-03-23T04:57:43;15;8;7
68713;PMS7003;55690;51.566;19.198;2023-03-23T05:01:49;10;6;4
68713;PMS7003;55690;51.566;19.198;2023-03-23T05:05:55;12;8;6
68713;PMS7003;55690;51.566;19.198;2023-03-23T05:10:02;10;7;6
68713;PMS7003;55690;51.566;19.198;2023-03-23T05:14:08;14;11;10
68713;PMS7003;55690;51.566;19.198;2023-03-23T05:18:14;6;6;5
68713;PMS7003;55690;51.566;19.198;2023-03-23T05:22:20;14;8;8
68713;PMS7003;55690;51.566;19.198;2023-03-23T05:26:26;10;9;7
68713;PMS7003;55690;51.566;19.198;2023-03-23T05:30:32;15;11;7
68713;PMS7003;55690;51.566;19.198;2023-03-23T05:34:39;15;13;10
68713;PMS7003;55690;51.566;19.198;2023-03-23T05:38:45;15;11;8
68713;PMS7003;55690;51.566;19.198;2023-03-23T05:42:51;13;12;8
68713;PMS7003;55690;51.566;19.198;2023-03-23T05:46:57;13;9;7
68713;PMS7003;55690;51.566;19.198;2023-03-23T05:51:05;15;14;11
68713;PMS7003;55690;51.566;19.198;2023-03-23T05:55:10;11;11;7
68713;PMS7003;55690;51.566;19.198;2023-03-23T05:59:16;10;10;8
68713;PMS7003;55690;51.566;19.198;2023-03-23T06:03:22;13;10;7
68713;PMS7003;55690;51.566;19.198;2023-03-23T06:07:28;19;10;6
68713;PMS7003;55690;51.566;19.198;2023-03-23T06:11:34;11;10;9
68713;PMS7003;55690;51.566;19.198;2023-03-23T06:15:40;17;13;10
68713;PMS7003;55690;51.566;19.198;2023-03-23T06:19:46;15;13;9
68713;PMS7003;55690;51.566;19.198;2023-03-23T06:23:53;25;14;8
68713;PMS7003;55690;51.566;19.198;2023-03-23T06:27:59;21;15;12
68713;PMS7003;55690;51.566;19.198;2023-03-23T06:32:05;18;18;13
68713;PMS7003;55690;51.566;19.198;2023-03-23T06:36:11;11;10;8
68713;PMS7003;55690;51.566;19.198;2023-03-23T06:40:17;13;12;11
68713;PMS7003;55690;51.566;19.198;2023-03-23T06:44:24;18;13;8
68713;PMS7003;55690;51.566;19.198;2023-03-23T06:48:30;23;15;12
68713;PMS7003;55690;51.566;19.198;2023-03-23T06:52:36;15;12;11
68713;PMS7003;55690;51.566;19.198;2023-03-23T06:56:42;13;12;8
68713;PMS7003;55690;51.566;19.198;2023-03-23T07:00:52;17;14;12
68713;PMS7003;55690;51.566;19.198;2023-03-23T07:04:57;13;7;6
68713;PMS7003;55690;51.566;19.198;2023-03-23T07:09:01;19;13;9
68713;PMS7003;55690;51.566;19.198;2023-03-23T07:13:07;16;15;12
68713;PMS7003;55690;51.566;19.198;2023-03-23T07:17:13;10;9;7
68713;PMS7003;55690;51.566;19.198;2023-03-23T07:21:19;14;13;10
68713;PMS7003;55690;51.566;19.198;2023-03-23T07:25:25;22;19;12
68713;PMS7003;55690;51.566;19.198;2023-03-23T07:29:31;13;9;8
68713;PMS7003;55690;51.566;19.198;2023-03-23T07:33:38;14;14;11
68713;PMS7003;55690;51.566;19.198;2023-03-23T07:37:44;16;12;9
68713;PMS7003;55690;51.566;19.198;2023-03-23T07:41:50;16;11;9
68713;PMS7003;55690;51.566;19.198;2023-03-23T07:45:56;12;9;8
68713;PMS7003;55690;51.566;19.198;2023-03-23T07:50:02;8;8;6
68713;PMS7003;55690;51.566;19.198;2023-03-23T07:54:08;11;10;9
68713;PMS7003;55690;51.566;19.198;2023-03-23T07:58:15;10;9;8
68713;PMS7003;55690;51.566;19.198;2023-03-23T08:02:21;8;8;7
68713;PMS7003;55690;51.566;19.198;2023-03-23T08:06:27;12;8;6
68713;PMS7003;55690;51.566;19.198;2023-03-23T08:10:33;14;14;8
68713;PMS7003;55690;51.566;19.198;2023-03-23T08:14:39;11;7;6
68713;PMS7003;55690;51.566;19.198;2023-03-23T08:18:45;10;10;7
68713;PMS7003;55690;51.566;19.198;2023-03-23T08:22:52;7;7;6
68713;PMS7003;55690;51.566;19.198;2023-03-23T08:26:58;6;6;6
68713;PMS7003;55690;51.566;19.198;2023-03-23T08:31:08;5;5;4
68713;PMS7003;55690;51.566;19.198;2023-03-23T08:35:11;3;3;3
68713;PMS7003;55690;51.566;19.198;2023-03-23T08:39:17;3;3;3
68713;PMS7003;55690;51.566;19.198;2023-03-23T08:43:23;6;4;3
68713;PMS7003;55690;51.566;19.198;2023-03-23T08:47:29;12;7;5
68713;PMS7003;55690;51.566;19.198;2023-03-23T08:51:35;4;4;4
68713;PMS7003;55690;51.566;19.198;2023-03-23T08:55:41;4;4;3
68713;PMS7003;55690;51.566;19.198;2023-03-23T08:59:47;3;2;2
68713;PMS7003;55690;51.566;19.198;2023-03-23T09:03:53;3;1;1
68713;PMS7003;55690;51.566;19.198;2023-03-23T09:07:59;3;3;3
68713;PMS7003;55690;51.566;19.198;2023-03-23T09:12:06;5;3;2
68713;PMS7003;55690;51.566;19.198;2023-03-23T09:16:12;5;5;4
68713;PMS7003;55690;51.566;19.198;2023-03-23T09:20:19;4;1;1
68713;PMS7003;55690;51.566;19.198;2023-03-23T09:24:24;3;3;3
68713;PMS7003;55690;51.566;19.198;2023-03-23T09:28:30;3;3;3
68713;PMS7003;55690;51.566;19.198;2023-03-23T09:32:37;2;2;2
68713;PMS7003;55690;51.566;19.198;2023-03-23T09:36:43;9;2;2
68713;PMS7003;55690;51.566;19.198;2023-03-23T09:40:50;2;2;2
68713;PMS7003;55690;51.566;19.198;2023-03-23T09:49:15;7;3;3
68713;PMS7003;55690;51.566;19.198;2023-03-23T09:57:39;11;4;3
68713;PMS7003;55690;51.566;19.198;2023-03-23T10:01:49;2;2;2
68713;PMS7003;55690;51.566;19.198;2023-03-23T10:05:56;1;1;0
68713;PMS7003;55690;51.566;19.198;2023-03-23T10:09:59;2;2;2
68713;PMS7003;55690;51.566;19.198;2023-03-23T10:22:33;2;2;2
68713;PMS7003;55690;51.566;19.198;2023-03-23T10:26:44;3;3;3
68713;PMS7003;55690;51.566;19.198;2023-03-23T10:34:15;0;0;0
68713;PMS7003;55690;51.566;19.198;2023-03-23T10:42:30;5;3;2
68713;PMS7003;55690;51.566;19.198;2023-03-23T10:50:51;4;4;4
68713;PMS7003;55690;51.566;19.198;2023-03-23T10:55:02;12;5;4
68713;PMS7003;55690;51.566;19.198;2023-03-23T11:03:24;4;2;2
68713;PMS7003;55690;51.566;19.198;2023-03-23T11:07:34;1;1;1
68713;PMS7003;55690;51.566;19.198;2023-03-23T11:11:40;4;4;3
68713;PMS7003;55690;51.566;19.198;2023-03-23T11:15:44;2;2;2
68713;PMS7003;55690;51.566;19.198;2023-03-23T11:19:47;3;3;3
68713;PMS7003;55690;51.566;19.198;2023-03-23T11:23:50;5;3;2
68713;PMS7003;55690;51.566;19.198;2023-03-23T11:27:59;6;5;4
68713;PMS7003;55690;51.566;19.198;2023-03-23T11:32:03;4;4;4
68713;PMS7003;55690;51.566;19.198;2023-03-23T11:36:08;11;6;5
68713;PMS7003;55690;51.566;19.198;2023-03-23T11:40:14;3;2;2
68713;PMS7003;55690;51.566;19.198;2023-03-23T11:44:20;2;2;2
68713;PMS7003;55690;51.566;19.198;2023-03-23T11:56:51;2;2;2
68713;PMS7003;55690;51.566;19.198;2023-03-23T12:00:56;2;2;1
68713;PMS7003;55690;51.566;19.198;2023-03-23T12:09:23;5;5;4
68713;PMS7003;55690;51.566;19.198;2023-03-23T12:39:10;1;1;0
68713;PMS7003;55690;51.566;19.198;2023-03-23T12:43:25;7;3;3
68713;PMS7003;55690;51.566;19.198;2023-03-23T12:56:08;2;2;1
68713;PMS7003;55690;51.566;19.198;2023-03-23T13:00:21;6;2;2
68713;PMS7003;55690;51.566;19.198;2023-03-23T13:08:40;3;3;2
68713;PMS7003;55690;51.566;19.198;2023-03-23T13:12:49;2;1;1
68713;PMS7003;55690;51.566;19.198;2023-03-23T13:16:55;1;1;1
68713;PMS7003;55690;51.566;19.198;2023-03-23T13:29:34;1;1;1
68713;PMS7003;55690;51.566;19.198;2023-03-23T13:33:36;1;1;1
68713;PMS7003;55690;51.566;19.198;2023-03-23T13:37:48;8;1;1
68713;PMS7003;55690;51.566;19.198;2023-03-23T13:46:11;7;2;2
68713;PMS7003;55690;51.566;19.198;2023-03-23T13:58:48;3;3;3
68713;PMS7003;55690;51.566;19.198;2023-03-23T14:07:11;1;1;1
68713;PMS7003;55690;51.566;19.198;2023-03-23T14:11:27;2;2;2
68713;PMS7003;55690;51.566;19.198;2023-03-23T14:15:37;2;2;2
68713;PMS7003;55690;51.566;19.198;2023-03-23T14:19:46;1;1;1
68713;PMS7003;55690;51.566;19.198;2023-03-23T14:23:50;2;2;1
68713;PMS7003;55690;51.566;19.198;2023-03-23T14:27:52;3;1;1
68713;PMS7003;55690;51.566;19.198;2023-03-23T14:31:56;4;1;1
68713;PMS7003;55690;51.566;19.198;2023-03-23T14:35:59;2;2;1
68713;PMS7003;55690;51.566;19.198;2023-03-23T14:40:01;1;1;1
68713;PMS7003;55690;51.566;19.198;2023-03-23T14:44:07;2;1;0
68713;PMS7003;55690;51.566;19.198;2023-03-23T14:48:14;0;0;0
68713;PMS7003;55690;51.566;19.198;2023-03-23T14:52:18;0;0;0
68713;PMS7003;55690;51.566;19.198;2023-03-23T14:56:20;0;0;0
68713;PMS7003;55690;51.566;19.198;2023-03-23T15:00:32;0;0;0
68713;PMS7003;55690;51.566;19.198;2023-03-23T15:04:38;0;0;0
68713;PMS7003;55690;51.566;19.198;2023-03-23T15:08:41;1;1;0
68713;PMS7003;55690;51.566;19.198;2023-03-23T15:12:45;1;1;0
68713;PMS7003;55690;51.566;19.198;2023-03-23T15:16:50;0;0;0
68713;PMS7003;55690;51.566;19.198;2023-03-23T15:20:55;0;0;0
68713;PMS7003;55690;51.566;19.198;2023-03-23T15:33:19;1;1;0
68713;PMS7003;55690;51.566;19.198;2023-03-23T15:37:31;1;1;1
68713;PMS7003;55690;51.566;19.198;2023-03-23T15:41:33;1;1;1
68713;PMS7003;55690;51.566;19.198;2023-03-23T15:45:39;1;0;0
68713;PMS7003;55690;51.566;19.198;2023-03-23T15:54:05;0;0;0
68713;PMS7003;55690;51.566;19.198;2023-03-23T15:58:14;2;0;0
68713;PMS7003;55690;51.566;19.198;2023-03-23T16:02:19;1;1;1
68713;PMS7003;55690;51.566;19.198;2023-03-23T16:06:23;1;1;1
68713;PMS7003;55690;51.566;19.198;2023-03-23T16:10:28;3;0;0
68713;PMS7003;55690;51.566;19.198;2023-03-23T16:14:30;0;0;0
68713;PMS7003;55690;51.566;19.198;2023-03-23T16:18:31;0;0;0
68713;PMS7003;55690;51.566;19.198;2023-03-23T16:22:33;1;1;1
68713;PMS7003;55690;51.566;19.198;2023-03-23T16:26:35;0;0;0
68713;PMS7003;55690;51.566;19.198;2023-03-23T16:30:41;1;1;1
68713;PMS7003;55690;51.566;19.198;2023-03-23T16:34:43;5;2;1
68713;PMS7003;55690;51.566;19.198;2023-03-23T16:38:45;1;1;1
68713;PMS7003;55690;51.566;19.198;2023-03-23T16:42:47;5;2;1
68713;PMS7003;55690;51.566;19.198;2023-03-23T16:46:50;1;1;1
68713;PMS7003;55690;51.566;19.198;2023-03-23T16:50:52;1;1;1
68713;PMS7003;55690;51.566;19.198;2023-03-23T16:54:57;2;2;2
68713;PMS7003;55690;51.566;19.198;2023-03-23T16:58:59;1;1;1
68713;PMS7003;55690;51.566;19.198;2023-03-23T17:03:00;8;1;1
68713;PMS7003;55690;51.566;19.198;2023-03-23T17:07:02;2;2;1
68713;PMS7003;55690;51.566;19.198;2023-03-23T17:11:04;4;0;0
68713;PMS7003;55690;51.566;19.198;2023-03-23T17:15:06;2;1;1
68713;PMS7003;55690;51.566;19.198;2023-03-23T17:19:09;3;2;2
68713;PMS7003;55690;51.566;19.198;2023-03-23T17:23:10;2;2;2
68713;PMS7003;55690;51.566;19.198;2023-03-23T17:27:13;3;3;3
68713;PMS7003;55690;51.566;19.198;2023-03-23T17:31:18;5;2;2
68713;PMS7003;55690;51.566;19.198;2023-03-23T17:35:19;1;1;1
68713;PMS7003;55690;51.566;19.198;2023-03-23T17:39:21;1;1;1
68713;PMS7003;55690;51.566;19.198;2023-03-23T17:43:22;2;2;2
68713;PMS7003;55690;51.566;19.198;2023-03-23T17:47:24;1;1;1
68713;PMS7003;55690;51.566;19.198;2023-03-23T17:51:26;2;2;2
68713;PMS7003;55690;51.566;19.198;2023-03-23T17:55:27;1;1;0
68713;PMS7003;55690;51.566;19.198;2023-03-23T17:59:29;1;1;1
68713;PMS7003;55690;51.566;19.198;2023-03-23T18:03:31;0;0;0
68713;PMS7003;55690;51.566;19.198;2023-03-23T18:07:32;1;1;1
68713;PMS7003;55690;51.566;19.198;2023-03-23T18:11:34;10;2;2
68713;PMS7003;55690;51.566;19.198;2023-03-23T18:15:36;4;2;2
68713;PMS7003;55690;51.566;19.198;2023-03-23T18:19:38;5;2;2
68713;PMS7003;55690;51.566;19.198;2023-03-23T18:23:39;2;2;2
68713;PMS7003;55690;51.566;19.198;2023-03-23T18:27:41;9;3;2
68713;PMS7003;55690;51.566;19.198;2023-03-23T18:31:42;4;4;4
68713;PMS7003;55690;51.566;19.198;2023-03-23T18:35:45;5;5;4
68713;PMS7003;55690;51.566;19.198;2023-03-23T18:39:47;7;3;3
68713;PMS7003;55690;51.566;19.198;2023-03-23T18:43:49;3;3;2
68713;PMS7003;55690;51.566;19.198;2023-03-23T18:47:50;6;4;3
68713;PMS7003;55690;51.566;19.198;2023-03-23T18:51:52;5;5;3
68713;PMS7003;55690;51.566;19.198;2023-03-23T18:56:02;2;2;2
68713;PMS7003;55690;51.566;19.198;2023-03-23T19:00:05;5;5;4
68713;PMS7003;55690;51.566;19.198;2023-03-23T19:04:08;11;7;6
68713;PMS7003;55690;51.566;19.198;2023-03-23T19:08:12;4;4;3
68713;PMS7003;55690;51.566;19.198;2023-03-23T19:12:14;10;4;4
68713;PMS7003;55690;51.566;19.198;2023-03-23T19:16:16;3;2;2
68713;PMS7003;55690;51.566;19.198;2023-03-23T19:20:18;9;8;6
68713;PMS7003;55690;51.566;19.198;2023-03-23T19:24:20;3;3;3
68713;PMS7003;55690;51.566;19.198;2023-03-23T19:28:22;5;5;4
68713;PMS7003;55690;51.566;19.198;2023-03-23T19:32:24;5;5;4
68713;PMS7003;55690;51.566;19.198;2023-03-23T19:36:26;7;6;5
68713;PMS7003;55690;51.566;19.198;2023-03-23T19:40:28;6;6;5
68713;PMS7003;55690;51.566;19.198;2023-03-23T19:44:30;6;6;5
68713;PMS7003;55690;51.566;19.198;2023-03-23T19:48:32;5;5;4
68713;PMS7003;55690;51.566;19.198;2023-03-23T19:52:34;7;7;4
68713;PMS7003;55690;51.566;19.198;2023-03-23T19:56:36;4;4;4
68713;PMS7003;55690;51.566;19.198;2023-03-23T20:00:38;6;6;5
68713;PMS7003;55690;51.566;19.198;2023-03-23T20:04:40;7;7;5
68713;PMS7003;55690;51.566;19.198;2023-03-23T20:08:44;7;5;4
68713;PMS7003;55690;51.566;19.198;2023-03-23T20:12:49;4;3;3
68713;PMS7003;55690;51.566;19.198;2023-03-23T20:16:57;12;8;6
68713;PMS7003;55690;51.566;19.198;2023-03-23T20:21:02;6;6;4
68713;PMS7003;55690;51.566;19.198;2023-03-23T20:25:07;16;8;6
68713;PMS7003;55690;51.566;19.198;2023-03-23T20:29:13;14;9;6
68713;PMS7003;55690;51.566;19.198;2023-03-23T20:33:19;12;11;9
68713;PMS7003;55690;51.566;19.198;2023-03-23T20:37:26;11;8;6
68713;PMS7003;55690;51.566;19.198;2023-03-23T20:41:32;15;6;5
68713;PMS7003;55690;51.566;19.198;2023-03-23T20:45:39;13;9;8
68713;PMS7003;55690;51.566;19.198;2023-03-23T20:49:44;14;8;7
68713;PMS7003;55690;51.566;19.198;2023-03-23T20:53:50;10;8;7
68713;PMS7003;55690;51.566;19.198;2023-03-23T20:57:56;7;7;5
68713;PMS7003;55690;51.566;19.198;2023-03-23T21:02:03;9;9;7
68713;PMS7003;55690;51.566;19.198;2023-03-23T21:06:09;11;8;6
68713;PMS7003;55690;51.566;19.198;2023-03-23T21:10:15;15;7;7
68713;PMS7003;55690;51.566;19.198;2023-03-23T21:14:21;10;9;8
68713;PMS7003;55690;51.566;19.198;2023-03-23T21:18:27;7;6;5
68713;PMS7003;55690;51.566;19.198;2023-03-23T21:22:33;14;11;9
68713;PMS7003;55690;51.566;19.198;2023-03-23T21:26:40;16;10;8
68713;PMS7003;55690;51.566;19.198;2023-03-23T21:30:46;13;7;6
68713;PMS7003;55690;51.566;19.198;2023-03-23T21:34:52;8;8;6
68713;PMS7003;55690;51.566;19.198;2023-03-23T21:38:58;0;0;0
68713;PMS7003;55690;51.566;19.198;2023-03-23T21:43:04;15;10;8
68713;PMS7003;55690;51.566;19.198;2023-03-23T21:47:11;14;8;6
68713;PMS7003;55690;51.566;19.198;2023-03-23T21:51:21;8;7;6
68713;PMS7003;55690;51.566;19.198;2023-03-23T21:55:24;14;11;9
68713;PMS7003;55690;51.566;19.198;2023-03-23T21:59:29;14;13;9
68713;PMS7003;55690;51.566;19.198;2023-03-23T22:03:35;8;8;5
68713;PMS7003;55690;51.566;19.198;2023-03-23T22:07:41;16;9;7
68713;PMS7003;55690;51.566;19.198;2023-03-23T22:11:47;8;7;6
68713;PMS7003;55690;51.566;19.198;2023-03-23T22:15:54;16;9;6
68713;PMS7003;55690;51.566;19.198;2023-03-23T22:20:00;15;10;9
68713;PMS7003;55690;51.566;19.198;2023-03-23T22:24:06;13;8;5
68713;PMS7003;55690;51.566;19.198;2023-03-23T22:28:12;14;6;5
68713;PMS7003;55690;51.566;19.198;2023-03-23T22:32:18;19;10;8
68713;PMS7003;55690;51.566;19.198;2023-03-23T22:36:25;12;12;7
68713;PMS7003;55690;51.566;19.198;2023-03-23T22:40:31;11;7;6
68713;PMS7003;55690;51.566;19.198;2023-03-23T22:44:37;12;8;8
68713;PMS7003;55690;51.566;19.198;2023-03-23T22:48:43;4;4;3
68713;PMS7003;55690;51.566;19.198;2023-03-23T22:52:49;9;9;6
68713;PMS7003;55690;51.566;19.198;2023-03-23T22:56:55;6;6;5
68713;PMS7003;55690;51.566;19.198;2023-03-23T23:01:03;11;5;4
68713;PMS7003;55690;51.566;19.198;2023-03-23T23:05:10;6;6;5
68713;PMS7003;55690;51.566;19.198;2023-03-23T23:09:14;8;8;7
68713;PMS7003;55690;51.566;19.198;2023-03-23T23:13:21;9;8;6
68713;PMS7003;55690;51.566;19.198;2023-03-23T23:17:26;7;7;5
68713;PMS7003;55690;51.566;19.198;2023-03-23T23:21:32;14;8;6
68713;PMS7003;55690;51.566;19.198;2023-03-23T23:25:39;6;6;4
68713;PMS7003;55690;51.566;19.198;2023-03-23T23:29:45;9;6;5
68713;PMS7003;55690;51.566;19.198;2023-03-23T23:33:52;9;5;4
68713;PMS7003;55690;51.566;19.198;2023-03-23T23:37:57;6;6;4
68713;PMS7003;55690;51.566;19.198;2023-03-23T23:42:03;7;6;4
68713;PMS7003;55690;51.566;19.198;2023-03-23T23:46:09;11;8;5
68713;PMS7003;55690;51.566;19.198;2023-03-23T23:50:16;10;7;6
68713;PMS7003;55690;51.566;19.198;2023-03-23T23:54:23;9;8;7
68713;PMS7003;55690;51.566;19.198;2023-03-23T23:58:29;6;5;4
